Time;durP1;ratioP1;P1;durP2;ratioP2;P2;SDS_P1;SDS_P2;PMS_P1;PMS_P2;Temp;Humidity;BMP_temperature;BMP_pressure;BME280_temperature;BME280_humidity;BME280_pressure;Samples;Min_cycle;Max_cycle;Signal;HPM_P1;HPM_P2
2023/08/12 00:02:06;;;;;;;18.60;6.80;;;;;;;18.03;66.65;99625.50;223508;181;139045;-59
2023/08/12 00:07:14;;;;;;;11.70;6.00;;;;;;;17.98;66.82;99628.09;223558;181;138065;-60
2023/08/12 00:12:19;;;;;;;14.20;5.70;;;;;;;17.92;66.96;99626.21;223528;181;145913;-59
2023/08/12 00:17:22;;;;;;;12.00;5.70;;;;;;;17.91;66.92;99622.17;223479;181;139082;-59
2023/08/12 00:22:26;;;;;;;13.00;5.70;;;;;;;17.89;67.01;99612.28;223423;181;138148;-63
2023/08/12 00:27:29;;;;;;;10.70;5.70;;;;;;;17.85;66.93;99613.73;223504;181;145881;-62
2023/08/12 00:32:32;;;;;;;13.20;5.40;;;;;;;17.77;67.00;99610.21;223387;181;139839;-62
2023/08/12 00:37:35;;;;;;;11.70;5.50;;;;;;;17.68;67.19;99606.29;223580;181;136537;-63
2023/08/12 00:42:39;;;;;;;13.00;5.90;;;;;;;17.58;67.27;99604.40;223517;182;145459;-64
2023/08/12 00:47:53;;;;;;;9.60;5.50;;;;;;;17.51;67.60;99607.14;223389;182;139538;-60
2023/08/12 00:52:58;;;;;;;8.70;5.40;;;;;;;17.42;68.00;99596.76;223422;181;139891;-64
2023/08/12 00:58:03;;;;;;;14.10;5.50;;;;;;;17.34;68.14;99599.55;223389;182;147365;-61
2023/08/12 01:03:06;;;;;;;10.80;5.20;;;;;;;17.29;68.43;99598.18;223429;182;138764;-61
2023/08/12 01:08:10;;;;;;;13.20;5.30;;;;;;;17.28;68.52;99594.28;223521;182;137543;-62
2023/08/12 01:13:30;;;;;;;8.40;5.40;;;;;;;17.28;68.44;99594.32;223361;181;145743;-62
2023/08/12 01:18:33;;;;;;;9.50;5.60;;;;;;;17.25;68.69;99590.34;223336;181;139002;-63
2023/08/12 01:23:38;;;;;;;9.00;5.30;;;;;;;17.21;68.70;99585.13;223461;182;136870;-59
2023/08/12 01:28:42;;;;;;;8.10;5.10;;;;;;;17.15;68.87;99588.89;223514;182;145930;-64
2023/08/12 01:33:58;;;;;;;9.30;5.50;;;;;;;17.08;69.08;99595.05;223493;181;138943;-60
2023/08/12 01:39:02;;;;;;;11.30;5.90;;;;;;;16.99;69.33;99596.77;223539;181;136652;-62
2023/08/12 01:44:07;;;;;;;10.40;5.20;;;;;;;16.90;69.49;99596.60;223339;181;145534;-61
2023/08/12 01:49:10;;;;;;;12.80;5.90;;;;;;;16.87;69.73;99595.10;223468;181;140112;-60
2023/08/12 01:54:13;;;;;;;10.20;5.00;;;;;;;16.89;69.81;99599.03;223446;182;139881;-60
2023/08/12 01:59:17;;;;;;;11.50;5.30;;;;;;;16.94;69.79;99602.40;223461;181;148668;-58
2023/08/12 02:04:20;;;;;;;10.30;6.10;;;;;;;16.89;69.72;99595.59;223372;177;140539;-59
2023/08/12 02:09:24;;;;;;;9.10;5.10;;;;;;;16.86;69.60;99594.98;223496;182;138227;-60
2023/08/12 02:14:27;;;;;;;7.80;5.30;;;;;;;16.77;69.65;99595.66;223480;182;147627;-62
2023/08/12 02:19:32;;;;;;;13.80;5.60;;;;;;;16.69;69.73;99601.61;223402;181;141025;-61
2023/08/12 02:24:35;;;;;;;13.60;5.60;;;;;;;16.62;69.99;99603.11;223449;181;138411;-61
2023/08/12 02:29:39;;;;;;;10.10;5.10;;;;;;;16.56;70.26;99605.53;223437;181;147496;-59
2023/08/12 02:34:42;;;;;;;11.30;5.20;;;;;;;16.52;70.33;99608.73;223375;181;141270;-63
2023/08/12 02:39:45;;;;;;;18.90;5.80;;;;;;;16.50;70.10;99608.84;223595;181;137816;-66
2023/08/12 02:44:48;;;;;;;16.20;5.80;;;;;;;16.49;70.00;99615.92;223501;177;148763;-66
2023/08/12 02:49:51;;;;;;;16.80;5.80;;;;;;;16.47;69.95;99611.61;223454;182;140420;-63
2023/08/12 02:54:56;;;;;;;9.10;5.20;;;;;;;16.44;69.78;99615.21;223474;181;137843;-65
2023/08/12 03:00:10;;;;;;;11.70;5.30;;;;;;;16.42;69.74;99621.16;223467;182;147403;-66
2023/08/12 03:05:14;;;;;;;8.80;5.40;;;;;;;16.41;69.20;99624.80;223490;181;139024;-65
2023/08/12 03:10:18;;;;;;;9.30;5.20;;;;;;;16.43;68.36;99627.88;223405;181;141831;-63
2023/08/12 03:15:21;;;;;;;12.80;5.40;;;;;;;16.44;67.87;99625.09;223400;182;148252;-62
2023/08/12 03:20:25;;;;;;;8.90;4.60;;;;;;;16.43;68.35;99631.58;223370;182;138923;-62
2023/08/12 03:25:28;;;;;;;8.50;4.90;;;;;;;16.36;68.66;99631.98;223500;182;138238;-61
2023/08/12 03:30:32;;;;;;;9.20;4.70;;;;;;;16.36;67.72;99630.38;223452;181;147868;-63
2023/08/12 03:35:35;;;;;;;7.70;4.90;;;;;;;16.43;67.23;99633.23;223360;182;139002;-62
2023/08/12 03:40:39;;;;;;;10.70;5.30;;;;;;;16.47;67.41;99637.58;223431;181;138185;-64
2023/08/12 03:45:45;;;;;;;10.00;5.10;;;;;;;16.48;67.10;99638.41;223562;181;148396;-60
2023/08/12 03:50:50;;;;;;;10.60;5.10;;;;;;;16.46;67.27;99633.36;223452;182;139655;-61
2023/08/12 03:55:53;;;;;;;10.20;5.00;;;;;;;16.45;67.64;99638.27;223485;181;137306;-60
2023/08/12 04:00:57;;;;;;;11.90;5.50;;;;;;;16.39;68.13;99639.08;223560;181;149510;-59
2023/08/12 04:06:00;;;;;;;11.80;5.10;;;;;;;16.34;67.71;99637.86;223511;181;138895;-60
2023/08/12 04:11:03;;;;;;;9.20;5.10;;;;;;;16.30;67.54;99638.68;223457;182;137235;-60
2023/08/12 04:16:07;;;;;;;12.90;5.00;;;;;;;16.25;66.99;99639.91;223501;182;147579;-62
2023/08/12 04:21:10;;;;;;;10.70;4.70;;;;;;;16.29;67.36;99634.63;223270;181;138591;-62
2023/08/12 04:26:14;;;;;;;11.80;4.70;;;;;;;16.38;67.32;99635.59;223394;181;141512;-61
2023/08/12 04:31:20;;;;;;;12.40;5.70;;;;;;;16.41;66.81;99636.40;223494;181;149172;-60
2023/08/12 04:36:45;;;;;;;7.90;4.90;;;;;;;16.45;67.08;99641.27;223385;181;139349;-62
2023/08/12 04:41:48;;;;;;;10.40;6.00;;;;;;;16.44;67.31;99635.84;223388;181;138074;-60
2023/08/12 04:46:52;;;;;;;11.70;6.20;;;;;;;16.40;67.54;99634.70;223442;181;147295;-62
2023/08/12 04:51:56;;;;;;;13.60;5.60;;;;;;;16.44;67.77;99642.08;223459;181;140877;-61
2023/08/12 04:56:59;;;;;;;9.30;5.30;;;;;;;16.51;67.66;99645.85;223433;181;139289;-60
2023/08/12 05:02:03;;;;;;;8.90;5.70;;;;;;;16.56;67.48;99645.48;223416;182;147748;-63
2023/08/12 05:07:09;;;;;;;57.00;50.30;;;;;;;16.63;67.61;99645.98;223402;181;138986;-61
2023/08/12 05:12:12;;;;;;;54.40;44.50;;;;;;;16.76;67.50;99645.57;223453;180;138018;-61
2023/08/12 05:17:16;;;;;;;11.90;6.50;;;;;;;16.91;67.35;99649.75;223427;181;148000;-62
2023/08/12 05:22:20;;;;;;;12.90;6.60;;;;;;;17.05;66.75;99650.45;223467;181;138885;-63
2023/08/12 05:27:23;;;;;;;63.70;46.60;;;;;;;17.27;66.73;99651.27;223390;181;137307;-62
2023/08/12 05:32:26;;;;;;;14.70;7.80;;;;;;;17.45;66.12;99644.52;223440;182;147716;-62
2023/08/12 05:37:30;;;;;;;10.60;6.00;;;;;;;17.52;65.40;99641.48;223582;182;138326;-61
2023/08/12 05:42:34;;;;;;;14.30;8.00;;;;;;;17.59;65.56;99642.02;223466;181;137154;-60
2023/08/12 05:47:37;;;;;;;68.00;51.20;;;;;;;17.87;65.19;99640.97;223420;182;148846;-60
2023/08/12 05:52:40;;;;;;;13.60;7.60;;;;;;;17.94;64.57;99640.42;223486;182;138721;-62
2023/08/12 05:57:43;;;;;;;12.20;6.50;;;;;;;17.95;64.23;99640.35;223463;182;139231;-60
2023/08/12 06:02:46;;;;;;;48.70;38.10;;;;;;;17.94;64.22;99631.81;223510;182;147198;-61
2023/08/12 06:07:54;;;;;;;11.80;7.20;;;;;;;17.95;64.27;99633.14;223472;182;140169;-62
2023/08/12 06:12:57;;;;;;;13.60;6.70;;;;;;;18.01;64.39;99626.59;223409;182;138382;-62
2023/08/12 06:18:01;;;;;;;14.10;6.70;;;;;;;18.08;64.39;99622.86;223446;181;148736;-62
2023/08/12 06:23:04;;;;;;;10.30;6.20;;;;;;;18.23;64.53;99624.66;223393;182;138852;-61
2023/08/12 06:28:09;;;;;;;11.70;6.70;;;;;;;18.39;64.08;99623.52;223492;181;138958;-62
2023/08/12 06:33:12;;;;;;;10.30;7.60;;;;;;;18.57;64.14;99624.14;223512;181;147666;-62
2023/08/12 06:38:15;;;;;;;13.40;7.20;;;;;;;18.71;63.73;99620.95;223345;182;138883;-62
2023/08/12 06:43:18;;;;;;;12.30;6.90;;;;;;;18.83;63.22;99622.48;223440;181;137933;-61
2023/08/12 06:48:21;;;;;;;9.20;6.80;;;;;;;18.90;62.87;99617.38;223333;181;149318;-60
2023/08/12 06:53:26;;;;;;;9.70;7.20;;;;;;;19.02;63.04;99619.41;223411;181;140683;-61
2023/08/12 06:58:29;;;;;;;13.10;7.20;;;;;;;19.17;62.90;99615.66;223452;181;140577;-66
2023/08/12 07:03:32;;;;;;;10.40;6.90;;;;;;;19.33;62.78;99616.06;223406;181;147284;-63
2023/08/12 07:08:35;;;;;;;125.40;99.20;;;;;;;19.48;62.51;99613.30;223211;182;139215;-59
2023/08/12 07:13:39;;;;;;;16.80;11.40;;;;;;;19.65;62.42;99611.23;223411;181;137680;-60
2023/08/12 07:18:42;;;;;;;12.00;7.40;;;;;;;19.81;61.83;99613.02;223421;181;147616;-59
2023/08/12 07:23:48;;;;;;;18.90;10.10;;;;;;;19.94;61.88;99612.73;223240;182;139658;-61
2023/08/12 07:29:06;;;;;;;15.30;9.40;;;;;;;20.13;61.53;99614.75;223541;181;138921;-61
2023/08/12 07:34:12;;;;;;;15.60;8.00;;;;;;;20.29;61.24;99608.65;223545;181;147277;-61
2023/08/12 07:39:16;;;;;;;12.50;7.30;;;;;;;20.44;60.65;99610.73;223525;181;139277;-60
2023/08/12 07:44:19;;;;;;;12.00;7.40;;;;;;;20.58;60.07;99605.38;223326;181;138414;-60
2023/08/12 07:49:22;;;;;;;12.20;6.00;;;;;;;20.68;59.26;99602.95;223345;181;147772;-61
2023/08/12 07:54:26;;;;;;;13.70;6.10;;;;;;;20.80;58.88;99604.86;223415;182;138827;-60
2023/08/12 07:59:29;;;;;;;8.50;5.70;;;;;;;20.92;58.83;99596.72;223278;181;137637;-64
2023/08/12 08:04:33;;;;;;;124.80;100.30;;;;;;;21.02;58.30;99590.09;223523;181;147283;-66
2023/08/12 08:09:36;;;;;;;15.00;8.30;;;;;;;21.08;57.20;99591.05;223392;182;139380;-63
2023/08/12 08:14:40;;;;;;;10.50;5.30;;;;;;;21.13;56.93;99588.57;223417;181;137327;-64
2023/08/12 08:19:43;;;;;;;10.10;5.30;;;;;;;21.22;56.35;99588.18;223406;181;147579;-62
2023/08/12 08:24:46;;;;;;;115.10;89.20;;;;;;;21.33;56.03;99586.30;223520;182;139193;-61
2023/08/12 08:29:52;;;;;;;10.80;8.60;;;;;;;21.47;56.14;99578.88;223356;181;138731;-64
2023/08/12 08:34:55;;;;;;;389.20;309.20;;;;;;;21.59;55.95;99574.46;223355;182;148950;-65
2023/08/12 08:40:00;;;;;;;25.60;19.80;;;;;;;21.74;56.19;99564.70;223120;181;139364;-62
2023/08/12 08:45:25;;;;;;;11.00;7.70;;;;;;;21.87;55.73;99569.68;223508;181;138225;-61
2023/08/12 08:50:31;;;;;;;7.70;5.30;;;;;;;21.95;54.26;99564.20;223312;181;147537;-62
2023/08/12 08:55:34;;;;;;;44.30;34.10;;;;;;;22.09;53.33;99562.10;223210;182;139335;-63
2023/08/12 09:00:38;;;;;;;14.50;10.90;;;;;;;22.24;51.95;99562.33;223274;180;138043;-63
2023/08/12 09:05:43;;;;;;;7.20;4.70;;;;;;;22.37;51.91;99554.70;223282;181;148059;-63
2023/08/12 09:10:47;;;;;;;9.80;4.20;;;;;;;22.45;50.71;99553.52;223156;181;138819;-65
2023/08/12 09:15:51;;;;;;;61.80;47.70;;;;;;;22.56;50.40;99545.33;223426;181;137204;-65
2023/08/12 09:20:55;;;;;;;10.80;8.00;;;;;;;22.70;50.11;99541.48;223250;180;148224;-62
2023/08/12 09:25:58;;;;;;;29.00;23.80;;;;;;;22.82;49.89;99537.54;223265;181;138757;-61
2023/08/12 09:31:02;;;;;;;69.60;53.50;;;;;;;23.03;48.48;99540.40;223366;181;137451;-62
2023/08/12 09:36:05;;;;;;;33.00;24.80;;;;;;;23.15;48.48;99538.92;223361;181;147767;-66
2023/08/12 09:41:09;;;;;;;14.20;8.70;;;;;;;23.28;48.89;99535.23;223254;181;142029;-65
2023/08/12 09:46:15;;;;;;;7.00;3.70;;;;;;;23.45;47.58;99532.98;223426;181;137492;-63
2023/08/12 09:51:21;;;;;;;149.00;117.60;;;;;;;23.57;46.28;99530.59;223202;181;283531;-62
2023/08/12 09:56:29;;;;;;;13.40;9.50;;;;;;;23.72;46.53;99522.84;223300;181;140973;-60
2023/08/12 10:01:33;;;;;;;15.50;10.40;;;;;;;23.86;46.21;99518.20;223517;181;137625;-61
2023/08/12 10:06:38;;;;;;;8.60;3.60;;;;;;;23.95;45.66;99511.96;223509;181;149081;-61
2023/08/12 10:11:43;;;;;;;14.70;12.40;;;;;;;24.08;45.03;99507.09;223486;182;139336;-63
2023/08/12 10:16:47;;;;;;;14.80;12.30;;;;;;;24.30;43.65;99504.68;223542;181;138159;-61
2023/08/12 10:21:58;;;;;;;6.70;3.20;;;;;;;24.54;43.45;99503.41;223314;182;149737;-60
2023/08/12 10:27:02;;;;;;;96.60;69.90;;;;;;;24.75;42.60;99497.42;223468;181;139487;-62
2023/08/12 10:32:06;;;;;;;8.10;4.50;;;;;;;24.92;42.16;99491.84;223203;181;137775;-61
2023/08/12 10:37:11;;;;;;;3.40;2.90;;;;;;;25.12;42.82;99489.49;223374;181;148405;-60
2023/08/12 10:42:35;;;;;;;;;;;;;;;25.31;42.19;99484.03;223043;182;141599;-61
2023/08/12 10:47:40;;;;;;;137.10;99.40;;;;;;;25.48;41.48;99477.32;223432;181;132403;-61
2023/08/12 10:52:45;;;;;;;15.80;5.50;;;;;;;25.66;41.83;99470.98;223361;181;147729;-61
2023/08/12 10:57:49;;;;;;;;;;;;;;;25.84;41.20;99457.90;223459;182;138746;-61
2023/08/12 11:02:56;;;;;;;8.10;3.30;;;;;;;26.00;41.67;99453.23;223388;181;133254;-61
2023/08/12 11:08:03;;;;;;;7.30;3.20;;;;;;;26.15;41.61;99450.04;223296;181;147789;-61
2023/08/12 11:13:08;;;;;;;5.10;3.20;;;;;;;26.27;41.39;99444.10;223424;182;149856;-61
2023/08/12 11:18:16;;;;;;;7.10;3.30;;;;;;;26.37;41.40;99444.70;223292;182;137079;-61
2023/08/12 11:23:21;;;;;;;5.50;3.10;;;;;;;26.53;41.82;99442.54;223322;181;147421;-61
2023/08/12 11:28:25;;;;;;;5.80;3.40;;;;;;;26.70;40.83;99438.12;223283;182;138900;-62
2023/08/12 11:33:43;;;;;;;4.80;2.80;;;;;;;26.76;40.84;99438.66;223334;181;137519;-60
2023/08/12 11:38:47;;;;;;;4.30;2.80;;;;;;;26.97;40.47;99434.05;223360;181;148433;-60
2023/08/12 11:43:50;;;;;;;47.10;41.80;;;;;;;27.14;39.37;99434.36;223266;182;138696;-62
2023/08/12 11:48:53;;;;;;;40.40;32.00;;;;;;;27.32;38.30;99421.16;223376;182;137431;-62
2023/08/12 11:53:56;;;;;;;3.90;3.30;;;;;;;27.57;38.01;99420.88;223302;181;147464;-62
2023/08/12 11:59:00;;;;;;;5.30;4.30;;;;;;;27.71;38.28;99407.95;223188;181;139832;-61
2023/08/12 12:04:03;;;;;;;4.50;2.40;;;;;;;27.80;38.22;99401.91;223312;182;137107;-60
2023/08/12 12:09:09;;;;;;;6.40;3.10;;;;;;;27.99;37.48;99398.11;223235;181;149034;-62
2023/08/12 12:14:13;;;;;;;4.40;2.30;;;;;;;28.20;37.60;99396.16;223151;182;139289;-61
2023/08/12 12:19:17;;;;;;;6.80;2.50;;;;;;;28.43;36.19;99396.25;223323;181;137937;-62
2023/08/12 12:24:21;;;;;;;;;;;;;;;28.67;35.53;99393.01;223288;181;148689;-62
2023/08/12 12:29:24;;;;;;;233.80;194.90;;;;;;;28.89;35.92;99381.17;223478;181;139411;-61
2023/08/12 12:34:27;;;;;;;38.80;32.00;;;;;;;29.14;35.09;99377.23;223470;181;138346;-60
2023/08/12 12:39:31;;;;;;;7.50;5.60;;;;;;;29.23;35.98;99373.38;223443;181;147730;-60
2023/08/12 12:44:34;;;;;;;4.10;2.70;;;;;;;29.36;34.09;99374.42;223479;178;138960;-61
2023/08/12 12:49:37;;;;;;;4.00;2.70;;;;;;;29.57;33.06;99369.52;223401;181;138130;-61
2023/08/12 12:54:40;;;;;;;187.80;151.20;;;;;;;29.80;33.41;99361.94;223470;181;148509;-62
2023/08/12 12:59:43;;;;;;;14.30;11.00;;;;;;;30.12;33.47;99355.40;223348;182;139519;-66
2023/08/12 13:04:47;;;;;;;8.50;3.40;;;;;;;30.35;33.36;99347.98;223317;181;137908;-62
2023/08/12 13:09:50;;;;;;;4.20;2.40;;;;;;;30.45;33.19;99347.93;223411;182;148973;-63
2023/08/12 13:14:54;;;;;;;4.00;2.00;;;;;;;30.56;32.45;99343.00;223444;181;140115;-64
2023/08/12 13:19:57;;;;;;;10.40;7.30;;;;;;;30.70;32.04;99341.39;223318;181;138447;-62
2023/08/12 13:25:01;;;;;;;6.80;5.20;;;;;;;30.90;32.38;99341.31;223379;182;147801;-65
2023/08/12 13:30:06;;;;;;;3.90;2.10;;;;;;;31.16;31.83;99333.89;223365;181;138663;-62
2023/08/12 13:35:10;;;;;;;4.00;2.20;;;;;;;31.42;31.39;99330.90;223390;182;139371;-61
2023/08/12 13:40:15;;;;;;;2.80;2.50;;;;;;;31.65;31.22;99322.91;223452;182;147443;-61
2023/08/12 13:45:18;;;;;;;;;;;;;;;31.90;31.04;99317.96;223370;182;139074;-62
2023/08/12 13:50:21;;;;;;;4.10;2.10;;;;;;;31.99;30.33;99315.16;223548;182;133576;-63
2023/08/12 13:55:25;;;;;;;7.50;2.90;;;;;;;32.09;30.94;99314.94;223215;181;147488;-61
2023/08/12 14:00:29;;;;;;;7.00;2.70;;;;;;;32.14;31.65;99309.59;223309;181;156430;-62
2023/08/12 14:05:32;;;;;;;3.40;2.50;;;;;;;32.23;30.95;99298.34;223155;182;137895;-60
2023/08/12 14:10:35;;;;;;;3.20;2.20;;;;;;;32.27;30.01;99298.63;223291;182;147404;-61
2023/08/12 14:15:39;;;;;;;2.80;2.00;;;;;;;32.25;29.90;99296.66;223471;179;138511;-60
2023/08/12 14:20:42;;;;;;;3.50;2.10;;;;;;;32.20;30.09;99293.41;223325;181;137026;-61
2023/08/12 14:25:45;;;;;;;4.30;2.10;;;;;;;32.15;30.27;99294.30;223388;178;147737;-64
2023/08/12 14:30:48;;;;;;;5.80;2.20;;;;;;;32.02;30.77;99297.09;223321;181;139057;-64
2023/08/12 14:36:00;;;;;;;6.90;5.40;;;;;;;31.85;31.26;99292.23;223260;182;137898;-61
2023/08/12 14:41:03;;;;;;;8.30;5.90;;;;;;;31.62;30.87;99290.30;223235;181;147573;-62
2023/08/12 14:46:07;;;;;;;5.50;3.60;;;;;;;31.31;31.87;99276.09;223225;181;139174;-62
2023/08/12 14:51:10;;;;;;;8.40;3.80;;;;;;;30.89;32.95;99266.67;223292;181;138772;-62
2023/08/12 14:56:14;;;;;;;5.50;2.30;;;;;;;30.47;33.02;99271.81;223324;181;147451;-64
2023/08/12 15:01:18;;;;;;;6.00;2.20;;;;;;;30.10;33.16;99270.17;223001;181;140675;-60
2023/08/12 15:06:22;;;;;;;2.90;2.10;;;;;;;29.77;32.83;99265.68;223289;181;137544;-60
2023/08/12 15:11:25;;;;;;;3.10;1.90;;;;;;;29.48;33.37;99259.69;223203;181;147725;-60
2023/08/12 15:16:28;;;;;;;53.40;47.70;;;;;;;29.25;33.71;99253.30;223162;182;139018;-61
2023/08/12 15:21:31;;;;;;;8.90;6.20;;;;;;;29.05;34.36;99249.36;223121;181;137707;-63
2023/08/12 15:26:35;;;;;;;3.10;2.10;;;;;;;28.89;34.45;99247.20;223280;181;147281;-63
2023/08/12 15:31:43;;;;;;;2.30;2.10;;;;;;;28.72;34.87;99240.42;223185;181;138960;-63
2023/08/12 15:36:51;;;;;;;4.60;3.10;;;;;;;28.58;35.47;99234.41;223204;181;138823;-63
2023/08/12 15:41:54;;;;;;;7.00;2.50;;;;;;;28.45;36.82;99232.81;223120;182;148452;-62
2023/08/12 15:46:57;;;;;;;3.90;2.10;;;;;;;28.35;36.38;99230.02;223222;182;138782;-61
2023/08/12 15:52:01;;;;;;;3.90;2.70;;;;;;;28.24;36.53;99222.77;223196;181;138058;-62
2023/08/12 15:57:04;;;;;;;4.30;2.30;;;;;;;28.15;37.28;99220.80;223321;181;149118;-63
2023/08/12 16:02:08;;;;;;;4.50;2.20;;;;;;;28.07;37.52;99221.85;223335;181;138709;-62
2023/08/12 16:07:12;;;;;;;3.40;2.20;;;;;;;28.00;37.00;99215.22;223306;181;140029;-61
2023/08/12 16:12:18;;;;;;;3.40;2.20;;;;;;;27.88;37.49;99215.95;223282;181;147794;-62
2023/08/12 16:17:22;;;;;;;3.30;2.60;;;;;;;27.70;37.83;99214.90;223189;181;139907;-61
2023/08/12 16:22:25;;;;;;;6.40;4.50;;;;;;;27.66;37.94;99214.16;223383;181;136855;-61
2023/08/12 16:27:28;;;;;;;5.90;2.70;;;;;;;27.63;37.96;99216.34;223224;181;148342;-62
2023/08/12 16:32:31;;;;;;;2.80;2.30;;;;;;;27.57;38.14;99211.59;223237;181;138986;-63
2023/08/12 16:37:35;;;;;;;18.40;16.00;;;;;;;27.52;38.52;99215.68;223385;181;138219;-61
2023/08/12 16:42:38;;;;;;;8.30;7.50;;;;;;;27.45;38.42;99213.48;223172;181;147546;-63
2023/08/12 16:47:41;;;;;;;6.80;6.10;;;;;;;27.36;38.76;99216.69;223223;181;139339;-62
2023/08/12 16:52:44;;;;;;;84.90;70.80;;;;;;;27.24;39.51;99215.05;223253;181;140526;-62
2023/08/12 16:57:48;;;;;;;10.80;7.80;;;;;;;27.09;40.05;99217.55;223360;181;151426;-63
2023/08/12 17:02:51;;;;;;;7.90;4.30;;;;;;;27.03;40.39;99219.30;223154;181;139936;-60
2023/08/12 17:07:55;;;;;;;6.20;3.60;;;;;;;26.92;40.67;99223.70;223242;181;138710;-62
2023/08/12 17:12:59;;;;;;;5.70;3.60;;;;;;;26.82;40.94;99222.05;223224;181;148600;-61
2023/08/12 17:18:03;;;;;;;9.50;4.20;;;;;;;26.74;41.22;99220.16;223247;181;139109;-63
2023/08/12 17:23:06;;;;;;;8.80;4.70;;;;;;;26.67;41.77;99221.60;223190;182;137316;-62
2023/08/12 17:28:09;;;;;;;4.30;3.30;;;;;;;26.54;42.66;99223.02;223356;182;147783;-60
2023/08/12 17:33:13;;;;;;;9.70;4.20;;;;;;;26.39;43.17;99222.25;223184;182;142358;-63
2023/08/12 17:38:16;;;;;;;7.80;4.10;;;;;;;26.29;44.47;99227.20;223284;181;137530;-62
2023/08/12 17:43:19;;;;;;;188.10;148.10;;;;;;;26.14;45.44;99226.70;223220;182;147590;-64
2023/08/12 17:48:22;;;;;;;43.60;33.00;;;;;;;26.05;46.45;99223.12;223256;182;138622;-63
2023/08/12 17:53:26;;;;;;;19.70;14.40;;;;;;;25.89;46.60;99223.05;223252;181;137691;-62
2023/08/12 17:58:29;;;;;;;6.80;4.90;;;;;;;25.73;47.18;99225.43;223201;181;148285;-61
2023/08/12 18:03:32;;;;;;;14.00;4.50;;;;;;;25.57;47.82;99224.48;223288;181;139130;-61
2023/08/12 18:08:37;;;;;;;9.70;4.40;;;;;;;25.41;48.49;99229.41;223275;181;137882;-61
2023/08/12 18:13:40;;;;;;;9.00;4.00;;;;;;;25.28;48.78;99237.08;223299;181;147602;-59
2023/08/12 18:18:44;;;;;;;10.40;4.00;;;;;;;25.13;49.67;99240.09;223304;181;138919;-60
2023/08/12 18:23:47;;;;;;;9.00;3.70;;;;;;;24.99;50.44;99241.62;223250;181;140419;-60
2023/08/12 18:29:02;;;;;;;10.60;4.20;;;;;;;24.83;50.67;99247.80;223287;181;148532;-60
2023/08/12 18:34:06;;;;;;;6.30;3.90;;;;;;;24.68;51.24;99252.84;223336;181;139807;-62
2023/08/12 18:39:09;;;;;;;380.50;322.60;;;;;;;24.54;51.89;99255.21;223155;181;138752;-64
2023/08/12 18:44:20;;;;;;;27.30;19.70;;;;;;;24.45;52.42;99257.92;223151;181;147805;-66
2023/08/12 18:49:24;;;;;;;32.00;19.50;;;;;;;24.33;52.52;99259.41;223273;181;140114;-64
2023/08/12 18:54:27;;;;;;;50.80;40.60;;;;;;;24.22;52.78;99254.41;223239;182;138371;-65
2023/08/12 18:59:30;;;;;;;9.80;5.20;;;;;;;24.10;53.51;99259.25;223258;181;148896;-63
2023/08/12 19:04:33;;;;;;;11.10;4.90;;;;;;;23.94;53.98;99265.77;223267;182;140090;-62
2023/08/12 19:09:36;;;;;;;10.30;4.90;;;;;;;23.83;54.28;99267.88;223365;181;136796;-64
2023/08/12 19:14:41;;;;;;;11.80;4.50;;;;;;;23.72;55.03;99271.88;223343;181;148850;-64
2023/08/12 19:19:44;;;;;;;13.20;5.80;;;;;;;23.59;55.55;99272.84;223219;181;140532;-63
2023/08/12 19:24:47;;;;;;;14.60;5.80;;;;;;;23.47;56.07;99275.75;223244;181;141240;-63
2023/08/12 19:29:51;;;;;;;21.40;6.90;;;;;;;23.36;56.64;99275.54;223347;181;147323;-64
2023/08/12 19:34:54;;;;;;;10.50;6.10;;;;;;;23.28;57.04;99274.95;223179;182;138910;-63
2023/08/12 19:39:57;;;;;;;11.40;5.70;;;;;;;23.16;57.60;99279.40;223351;181;137174;-65
2023/08/12 19:45:02;;;;;;;10.80;5.30;;;;;;;23.07;58.11;99281.26;223222;181;150218;-62
2023/08/12 19:50:10;;;;;;;302.20;269.50;;;;;;;22.95;58.46;99276.44;223343;181;140465;-65
2023/08/12 19:55:13;;;;;;;27.40;20.00;;;;;;;22.93;59.06;99276.84;223306;181;137958;-65
2023/08/12 20:00:21;;;;;;;9.80;6.60;;;;;;;22.83;59.16;99274.88;223388;181;149316;-60
2023/08/12 20:05:27;;;;;;;10.10;6.50;;;;;;;22.69;59.57;99285.95;223418;181;138933;-61
2023/08/12 20:10:31;;;;;;;12.80;6.00;;;;;;;22.56;60.02;99290.50;223420;181;138998;-62
2023/08/12 20:15:34;;;;;;;13.30;6.00;;;;;;;22.43;60.78;99288.08;223439;181;147893;-60
2023/08/12 20:20:37;;;;;;;12.10;6.20;;;;;;;22.31;61.15;99290.31;223325;181;140704;-70
2023/08/12 20:25:44;;;;;;;14.80;6.60;;;;;;;22.20;61.75;99295.59;223413;181;137143;-66
2023/08/12 20:30:55;;;;;;;15.40;6.40;;;;;;;22.07;62.34;99295.13;223444;182;147654;-70
2023/08/12 20:35:58;;;;;;;13.20;6.00;;;;;;;21.95;62.87;99291.14;223507;181;140001;-61
2023/08/12 20:41:02;;;;;;;12.50;5.80;;;;;;;21.86;63.13;99289.92;223436;181;138741;-66
2023/08/12 20:46:05;;;;;;;11.10;6.30;;;;;;;21.84;63.41;99290.83;223505;181;148720;-64
2023/08/12 20:51:08;;;;;;;14.20;6.70;;;;;;;21.82;63.57;99299.71;223426;181;140670;-67
2023/08/12 20:56:11;;;;;;;13.10;6.40;;;;;;;21.80;63.75;99305.63;223396;182;137717;-68
2023/08/12 21:01:16;;;;;;;14.60;6.50;;;;;;;21.74;63.77;99306.44;223471;181;148171;-62
2023/08/12 21:06:19;;;;;;;12.20;6.60;;;;;;;21.64;63.66;99305.86;223512;181;138652;-65
2023/08/12 21:11:23;;;;;;;11.50;6.70;;;;;;;21.52;64.00;99304.56;223379;181;139493;-64
2023/08/12 21:16:26;;;;;;;10.90;7.00;;;;;;;21.41;64.04;99303.98;223445;181;147511;-63
2023/08/12 21:21:29;;;;;;;13.10;6.40;;;;;;;21.30;64.28;99305.36;223429;181;140200;-63
2023/08/12 21:26:33;;;;;;;13.10;6.70;;;;;;;21.18;64.57;99303.70;223457;181;137832;-65
2023/08/12 21:31:37;;;;;;;17.80;8.30;;;;;;;21.06;65.06;99299.30;223437;182;148139;-66
2023/08/12 21:36:40;;;;;;;17.80;6.50;;;;;;;20.97;65.39;99297.15;223431;182;140101;-59
2023/08/12 21:41:43;;;;;;;12.40;7.00;;;;;;;20.89;65.74;99294.27;223463;181;139003;-61
2023/08/12 21:46:46;;;;;;;15.60;6.80;;;;;;;20.89;65.74;99298.69;223490;181;148066;-60
2023/08/12 21:51:49;;;;;;;12.60;6.70;;;;;;;20.88;66.02;99307.61;223452;181;139461;-62
2023/08/12 21:56:54;;;;;;;12.40;6.30;;;;;;;20.84;65.99;99311.61;223595;182;138215;-64
2023/08/12 22:02:01;;;;;;;13.70;7.10;;;;;;;20.77;66.12;99303.03;223473;182;148849;-63
2023/08/12 22:07:05;;;;;;;18.40;7.60;;;;;;;20.70;66.32;99296.39;223428;182;138803;-65
2023/08/12 22:12:08;;;;;;;16.90;7.00;;;;;;;20.64;66.46;99289.42;223374;181;137413;-65
2023/08/12 22:17:11;;;;;;;12.80;7.00;;;;;;;20.56;66.74;99276.16;223492;182;148225;-65
2023/08/12 22:22:16;;;;;;;13.00;7.80;;;;;;;20.48;66.77;99273.92;223429;181;138875;-64
2023/08/12 22:27:22;;;;;;;13.50;7.10;;;;;;;20.39;67.00;99266.35;223298;182;138052;-63
2023/08/12 22:32:25;;;;;;;12.60;7.20;;;;;;;20.34;67.31;99267.00;223492;181;147388;-62
2023/08/12 22:37:28;;;;;;;10.80;7.10;;;;;;;20.32;67.24;99267.50;223457;178;139361;-64
2023/08/12 22:42:32;;;;;;;12.50;7.30;;;;;;;20.30;67.38;99261.08;223364;182;137214;-64
2023/08/12 22:47:35;;;;;;;11.40;7.10;;;;;;;20.25;67.25;99265.14;223559;181;148640;-62
2023/08/12 22:52:40;;;;;;;12.60;7.50;;;;;;;20.17;67.14;99260.59;223425;181;138920;-66
2023/08/12 22:57:43;;;;;;;12.80;7.00;;;;;;;20.11;67.24;99253.19;223525;182;137953;-66
2023/08/12 23:02:46;;;;;;;12.60;7.00;;;;;;;20.03;67.54;99247.33;223369;181;150664;-64
2023/08/12 23:07:52;;;;;;;12.90;7.40;;;;;;;19.93;67.52;99243.83;223446;181;138859;-66
2023/08/12 23:12:55;;;;;;;;;;;;;;;19.81;67.96;99246.00;223520;181;139927;-63
2023/08/12 23:17:58;;;;;;;12.50;6.80;;;;;;;19.76;68.09;99248.91;223469;181;147708;-66
2023/08/12 23:23:01;;;;;;;11.50;6.20;;;;;;;19.73;68.01;99252.04;223367;181;138838;-62